• Join FlightAware (Why Join?)
  • Login
  • US Flag 
08:25PM EDT


 

Airport Tracker/Info


-or-


 

Live Flight TrackerFlight Track Log ✈ ASQ5407 ✈ 26-Apr-2013 ✈ KATL - KAGS

Flight Track Log - Related Links

Times and Time Zones

All times are in EDT time to prevent confusion due to time zone crossing. See the ASQ5407 flight status page for this flight to view local times or setup timezone preferences in your user account.

Time Position Orientation Groundspeed Altitude Reporting Facility
EDT Latitude Longitude Course Direction KTS MPH feet Rate Location/Type
11:04PM 33.6333 -84.3833 90° East 184 212 2,600  Level Atlanta TRACON
11:05PM 33.6333 -84.3000 90° East 259 298 5,100 2,520 Climbing Atlanta TRACON
11:06PM 33.6333 -84.2000 90° East 282 325 7,700 2,340 Climbing Atlanta TRACON
11:07PM 33.6128 -84.0936 103° East 323 372 10,200 1,800 Climbing Atlanta Center
11:08PM 33.5981 -83.9839 99° East 328 377 11,600 1,320 Climbing Atlanta Center
11:09PM 33.5792 -83.8592 100° East 356 410 12,900 1,500 Climbing Atlanta Center
11:10PM 33.5581 -83.7272 101° East 389 448 14,600 1,680 Climbing Atlanta Center
11:11PM 33.5533 -83.5975 92° East 394 453 16,300 1,200 Climbing Atlanta Center
11:12PM 33.5675 -83.4581 83° East 405 466 17,000 300 Climbing Atlanta Center
11:13PM 33.5500 -83.3111 98° East 421 484 16,900 -120 Descending Atlanta Center
11:14PM 33.5303 -83.1692 99° East 433 498 16,800 -600 Descending Atlanta Center
11:15PM 33.5144 -83.0222 97° East 433 498 15,700 -1,740 Descending Atlanta Center
11:16PM 33.4903 -82.8781 101° East 440 506 13,400 -2,100 Descending Atlanta Center
11:17PM 33.4786 -82.7536 96° East 435 501 11,600 -1,440 Descending Atlanta Center
11:18PM 33.4628 -82.6319 99° East 389 448 10,600 -1,200 Descending Atlanta Center
11:19PM 33.4428 -82.5303 103° East 350 403 9,300 -1,500 Descending Atlanta Center
11:20PM 33.4350 -82.4308 95° East 317 365 7,600 -1,860 Descending Atlanta Center
11:21PM 33.4381 -82.3311 88° East 278 320 5,600 -1,860 Descending Atlanta Center
11:22PM 33.4408 -82.2464 88° East 268 308 3,900 -1,680 Descending Atlanta Center
11:23PM 33.4439 -82.1617 88° East 263 303 2,300 -900 Descending Atlanta Center
11:24PM 33.4428 -82.0894 91° East 239 275 2,200 -240 Descending Atlanta Center
11:25PM 33.4378 -82.0372 97° East 195 224 1,900 -480 Descending Atlanta Center
11:26PM 33.4222 -81.9931 113° Southeast 159 183 1,300 -600 Descending Atlanta Center